sensor_id;sensor_type;location;lat;lon;timestamp;P1;durP1;ratioP1;P2;durP2;ratioP2
70455;SDS011;57916;51.996;5.180;2023-05-20T00:00:44;6.18;;;3.10;;
70455;SDS011;57916;51.996;5.180;2023-05-20T00:03:15;7.43;;;2.95;;
70455;SDS011;57916;51.996;5.180;2023-05-20T00:05:42;7.70;;;3.10;;
70455;SDS011;57916;51.996;5.180;2023-05-20T00:08:10;8.25;;;3.13;;
70455;SDS011;57916;51.996;5.180;2023-05-20T00:10:37;7.50;;;2.83;;
70455;SDS011;57916;51.996;5.180;2023-05-20T00:13:05;9.40;;;3.15;;
70455;SDS011;57916;51.996;5.180;2023-05-20T00:15:32;6.50;;;3.22;;
70455;SDS011;57916;51.996;5.180;2023-05-20T00:18:02;7.07;;;3.08;;
70455;SDS011;57916;51.996;5.180;2023-05-20T00:20:30;8.88;;;3.58;;
70455;SDS011;57916;51.996;5.180;2023-05-20T00:22:57;6.07;;;3.25;;
70455;SDS011;57916;51.996;5.180;2023-05-20T00:25:24;7.28;;;3.47;;
70455;SDS011;57916;51.996;5.180;2023-05-20T00:27:52;6.50;;;3.17;;
70455;SDS011;57916;51.996;5.180;2023-05-20T00:30:19;7.22;;;3.25;;
70455;SDS011;57916;51.996;5.180;2023-05-20T00:32:46;7.70;;;3.28;;
70455;SDS011;57916;51.996;5.180;2023-05-20T00:35:13;6.43;;;3.22;;
70455;SDS011;57916;51.996;5.180;2023-05-20T00:37:40;8.60;;;3.20;;
70455;SDS011;57916;51.996;5.180;2023-05-20T00:40:08;12.00;;;3.27;;
70455;SDS011;57916;51.996;5.180;2023-05-20T00:42:35;9.15;;;3.15;;
70455;SDS011;57916;51.996;5.180;2023-05-20T00:45:02;7.57;;;3.17;;
70455;SDS011;57916;51.996;5.180;2023-05-20T00:47:30;7.55;;;3.33;;
70455;SDS011;57916;51.996;5.180;2023-05-20T00:50:00;8.35;;;3.40;;
70455;SDS011;57916;51.996;5.180;2023-05-20T00:52:30;8.50;;;3.35;;
70455;SDS011;57916;51.996;5.180;2023-05-20T00:54:58;5.72;;;3.40;;
70455;SDS011;57916;51.996;5.180;2023-05-20T00:57:25;9.65;;;3.22;;
70455;SDS011;57916;51.996;5.180;2023-05-20T00:59:53;8.23;;;3.30;;
70455;SDS011;57916;51.996;5.180;2023-05-20T01:02:20;6.40;;;3.20;;
70455;SDS011;57916;51.996;5.180;2023-05-20T01:04:48;10.98;;;3.40;;
70455;SDS011;57916;51.996;5.180;2023-05-20T01:07:16;7.75;;;3.40;;
70455;SDS011;57916;51.996;5.180;2023-05-20T01:09:44;9.57;;;3.70;;
70455;SDS011;57916;51.996;5.180;2023-05-20T01:12:13;9.73;;;3.37;;
70455;SDS011;57916;51.996;5.180;2023-05-20T01:15:17;11.75;;;3.40;;
70455;SDS011;57916;51.996;5.180;2023-05-20T01:17:39;11.45;;;3.85;;
70455;SDS011;57916;51.996;5.180;2023-05-20T01:20:13;9.60;;;3.28;;
70455;SDS011;57916;51.996;5.180;2023-05-20T01:22:46;6.18;;;3.00;;
70455;SDS011;57916;51.996;5.180;2023-05-20T01:25:14;9.07;;;3.30;;
70455;SDS011;57916;51.996;5.180;2023-05-20T01:27:44;8.10;;;3.40;;
70455;SDS011;57916;51.996;5.180;2023-05-20T01:30:12;9.83;;;3.60;;
70455;SDS011;57916;51.996;5.180;2023-05-20T01:32:46;9.77;;;3.67;;
70455;SDS011;57916;51.996;5.180;2023-05-20T01:35:17;8.68;;;3.55;;
70455;SDS011;57916;51.996;5.180;2023-05-20T01:37:47;6.35;;;3.50;;
70455;SDS011;57916;51.996;5.180;2023-05-20T01:40:18;9.70;;;3.70;;
70455;SDS011;57916;51.996;5.180;2023-05-20T01:42:46;10.75;;;3.47;;
70455;SDS011;57916;51.996;5.180;2023-05-20T01:45:18;9.45;;;3.90;;
70455;SDS011;57916;51.996;5.180;2023-05-20T01:47:46;12.43;;;3.90;;
70455;SDS011;57916;51.996;5.180;2023-05-20T01:50:13;11.27;;;3.88;;
70455;SDS011;57916;51.996;5.180;2023-05-20T01:52:40;9.70;;;3.63;;
70455;SDS011;57916;51.996;5.180;2023-05-20T01:55:07;12.20;;;4.13;;
70455;SDS011;57916;51.996;5.180;2023-05-20T01:57:34;9.68;;;3.67;;
70455;SDS011;57916;51.996;5.180;2023-05-20T02:00:03;9.90;;;3.72;;
70455;SDS011;57916;51.996;5.180;2023-05-20T02:02:38;6.70;;;3.63;;
70455;SDS011;57916;51.996;5.180;2023-05-20T02:05:07;6.65;;;3.75;;
70455;SDS011;57916;51.996;5.180;2023-05-20T02:07:35;9.23;;;3.75;;
70455;SDS011;57916;51.996;5.180;2023-05-20T02:10:02;8.75;;;3.78;;
70455;SDS011;57916;51.996;5.180;2023-05-20T02:12:29;10.63;;;3.60;;
70455;SDS011;57916;51.996;5.180;2023-05-20T02:14:56;9.10;;;3.55;;
70455;SDS011;57916;51.996;5.180;2023-05-20T02:17:23;6.70;;;3.80;;
70455;SDS011;57916;51.996;5.180;2023-05-20T02:19:50;10.98;;;3.83;;
70455;SDS011;57916;51.996;5.180;2023-05-20T02:22:17;11.57;;;3.90;;
70455;SDS011;57916;51.996;5.180;2023-05-20T02:24:44;6.35;;;3.50;;
70455;SDS011;57916;51.996;5.180;2023-05-20T02:27:11;8.00;;;3.75;;
70455;SDS011;57916;51.996;5.180;2023-05-20T02:29:38;12.23;;;4.30;;
70455;SDS011;57916;51.996;5.180;2023-05-20T02:32:05;6.97;;;3.88;;
70455;SDS011;57916;51.996;5.180;2023-05-20T02:34:32;11.65;;;4.43;;
70455;SDS011;57916;51.996;5.180;2023-05-20T02:36:59;6.68;;;3.58;;
70455;SDS011;57916;51.996;5.180;2023-05-20T02:39:27;8.10;;;3.90;;
70455;SDS011;57916;51.996;5.180;2023-05-20T02:41:54;9.77;;;4.00;;
70455;SDS011;57916;51.996;5.180;2023-05-20T02:44:22;12.80;;;4.00;;
70455;SDS011;57916;51.996;5.180;2023-05-20T02:46:49;13.82;;;4.07;;
70455;SDS011;57916;51.996;5.180;2023-05-20T02:49:16;7.95;;;4.10;;
70455;SDS011;57916;51.996;5.180;2023-05-20T02:51:43;6.78;;;3.70;;
70455;SDS011;57916;51.996;5.180;2023-05-20T02:54:10;9.95;;;4.03;;
70455;SDS011;57916;51.996;5.180;2023-05-20T02:56:37;9.23;;;4.17;;
70455;SDS011;57916;51.996;5.180;2023-05-20T02:59:04;9.23;;;4.13;;
70455;SDS011;57916;51.996;5.180;2023-05-20T03:01:32;7.53;;;3.95;;
70455;SDS011;57916;51.996;5.180;2023-05-20T03:04:01;8.07;;;4.10;;
70455;SDS011;57916;51.996;5.180;2023-05-20T03:06:29;9.45;;;4.25;;
70455;SDS011;57916;51.996;5.180;2023-05-20T03:08:57;8.82;;;4.03;;
70455;SDS011;57916;51.996;5.180;2023-05-20T03:11:24;9.07;;;3.80;;
70455;SDS011;57916;51.996;5.180;2023-05-20T03:13:51;10.35;;;3.88;;
70455;SDS011;57916;51.996;5.180;2023-05-20T03:16:18;8.73;;;4.15;;
70455;SDS011;57916;51.996;5.180;2023-05-20T03:18:46;8.60;;;3.70;;
70455;SDS011;57916;51.996;5.180;2023-05-20T03:21:13;10.77;;;3.88;;
70455;SDS011;57916;51.996;5.180;2023-05-20T03:23:40;9.35;;;4.00;;
70455;SDS011;57916;51.996;5.180;2023-05-20T03:26:07;7.22;;;4.07;;
70455;SDS011;57916;51.996;5.180;2023-05-20T03:28:34;9.57;;;4.33;;
70455;SDS011;57916;51.996;5.180;2023-05-20T03:31:02;6.70;;;4.00;;
70455;SDS011;57916;51.996;5.180;2023-05-20T03:33:32;9.52;;;3.80;;
70455;SDS011;57916;51.996;5.180;2023-05-20T03:36:01;6.57;;;3.90;;
70455;SDS011;57916;51.996;5.180;2023-05-20T03:38:29;15.18;;;4.30;;
70455;SDS011;57916;51.996;5.180;2023-05-20T03:40:56;8.95;;;3.92;;
70455;SDS011;57916;51.996;5.180;2023-05-20T03:43:23;8.35;;;4.00;;
70455;SDS011;57916;51.996;5.180;2023-05-20T03:45:51;5.25;;;3.63;;
70455;SDS011;57916;51.996;5.180;2023-05-20T03:48:18;7.27;;;3.77;;
70455;SDS011;57916;51.996;5.180;2023-05-20T03:50:46;8.45;;;3.97;;
70455;SDS011;57916;51.996;5.180;2023-05-20T03:53:15;11.00;;;4.10;;
70455;SDS011;57916;51.996;5.180;2023-05-20T03:55:42;8.38;;;3.90;;
70455;SDS011;57916;51.996;5.180;2023-05-20T03:58:11;8.93;;;3.90;;
70455;SDS011;57916;51.996;5.180;2023-05-20T04:00:39;8.40;;;4.05;;
70455;SDS011;57916;51.996;5.180;2023-05-20T04:03:06;8.70;;;4.00;;
70455;SDS011;57916;51.996;5.180;2023-05-20T04:05:34;8.20;;;4.18;;
70455;SDS011;57916;51.996;5.180;2023-05-20T04:08:06;10.23;;;4.22;;
70455;SDS011;57916;51.996;5.180;2023-05-20T04:10:35;8.30;;;3.97;;
70455;SDS011;57916;51.996;5.180;2023-05-20T04:13:02;7.55;;;4.20;;
70455;SDS011;57916;51.996;5.180;2023-05-20T04:15:29;7.00;;;4.15;;
70455;SDS011;57916;51.996;5.180;2023-05-20T04:17:57;7.10;;;3.80;;
70455;SDS011;57916;51.996;5.180;2023-05-20T04:20:26;7.82;;;3.80;;
70455;SDS011;57916;51.996;5.180;2023-05-20T04:22:55;9.82;;;4.50;;
70455;SDS011;57916;51.996;5.180;2023-05-20T04:25:23;7.38;;;3.70;;
70455;SDS011;57916;51.996;5.180;2023-05-20T04:27:52;8.27;;;4.30;;
70455;SDS011;57916;51.996;5.180;2023-05-20T04:30:23;7.07;;;4.20;;
70455;SDS011;57916;51.996;5.180;2023-05-20T04:32:50;10.85;;;4.05;;
70455;SDS011;57916;51.996;5.180;2023-05-20T04:35:17;7.55;;;4.20;;
70455;SDS011;57916;51.996;5.180;2023-05-20T04:37:46;9.07;;;4.00;;
70455;SDS011;57916;51.996;5.180;2023-05-20T04:40:14;7.28;;;3.85;;
70455;SDS011;57916;51.996;5.180;2023-05-20T04:42:40;6.70;;;4.07;;
70455;SDS011;57916;51.996;5.180;2023-05-20T04:45:10;10.30;;;4.05;;
70455;SDS011;57916;51.996;5.180;2023-05-20T04:47:39;7.45;;;4.10;;
70455;SDS011;57916;51.996;5.180;2023-05-20T04:50:08;7.90;;;4.00;;
70455;SDS011;57916;51.996;5.180;2023-05-20T04:52:39;8.50;;;3.88;;
70455;SDS011;57916;51.996;5.180;2023-05-20T04:55:07;7.68;;;3.80;;
70455;SDS011;57916;51.996;5.180;2023-05-20T04:57:39;9.50;;;4.20;;
70455;SDS011;57916;51.996;5.180;2023-05-20T05:00:11;10.68;;;4.00;;
70455;SDS011;57916;51.996;5.180;2023-05-20T05:02:39;8.32;;;3.67;;
70455;SDS011;57916;51.996;5.180;2023-05-20T05:05:06;6.07;;;3.80;;
70455;SDS011;57916;51.996;5.180;2023-05-20T05:07:34;7.82;;;4.00;;
70455;SDS011;57916;51.996;5.180;2023-05-20T05:10:01;8.75;;;3.75;;
70455;SDS011;57916;51.996;5.180;2023-05-20T05:12:30;10.80;;;4.10;;
70455;SDS011;57916;51.996;5.180;2023-05-20T05:14:57;10.57;;;4.28;;
70455;SDS011;57916;51.996;5.180;2023-05-20T05:17:25;12.18;;;3.80;;
70455;SDS011;57916;51.996;5.180;2023-05-20T05:19:55;8.17;;;4.10;;
70455;SDS011;57916;51.996;5.180;2023-05-20T05:22:23;8.20;;;3.80;;
70455;SDS011;57916;51.996;5.180;2023-05-20T05:24:50;6.77;;;3.80;;
70455;SDS011;57916;51.996;5.180;2023-05-20T05:27:17;8.87;;;4.03;;
70455;SDS011;57916;51.996;5.180;2023-05-20T05:29:44;6.20;;;3.50;;
70455;SDS011;57916;51.996;5.180;2023-05-20T05:32:11;6.40;;;3.90;;
70455;SDS011;57916;51.996;5.180;2023-05-20T05:34:38;8.32;;;4.10;;
70455;SDS011;57916;51.996;5.180;2023-05-20T05:37:05;9.07;;;3.65;;
70455;SDS011;57916;51.996;5.180;2023-05-20T05:39:32;8.30;;;3.60;;
70455;SDS011;57916;51.996;5.180;2023-05-20T05:42:03;11.60;;;3.97;;
70455;SDS011;57916;51.996;5.180;2023-05-20T05:44:31;8.18;;;3.80;;
70455;SDS011;57916;51.996;5.180;2023-05-20T05:46:58;4.57;;;3.38;;
70455;SDS011;57916;51.996;5.180;2023-05-20T05:49:25;6.65;;;3.45;;
70455;SDS011;57916;51.996;5.180;2023-05-20T05:51:52;11.00;;;3.63;;
70455;SDS011;57916;51.996;5.180;2023-05-20T05:54:21;5.35;;;3.40;;
70455;SDS011;57916;51.996;5.180;2023-05-20T05:56:49;8.03;;;3.70;;
70455;SDS011;57916;51.996;5.180;2023-05-20T05:59:17;6.70;;;3.78;;
70455;SDS011;57916;51.996;5.180;2023-05-20T06:01:45;7.27;;;3.57;;
70455;SDS011;57916;51.996;5.180;2023-05-20T06:04:13;6.72;;;3.42;;
70455;SDS011;57916;51.996;5.180;2023-05-20T06:06:40;4.55;;;3.60;;
70455;SDS011;57916;51.996;5.180;2023-05-20T06:09:07;5.55;;;3.67;;
70455;SDS011;57916;51.996;5.180;2023-05-20T06:11:34;6.75;;;3.50;;
70455;SDS011;57916;51.996;5.180;2023-05-20T06:14:02;7.05;;;3.50;;
70455;SDS011;57916;51.996;5.180;2023-05-20T06:16:29;5.50;;;3.33;;
70455;SDS011;57916;51.996;5.180;2023-05-20T06:18:58;6.57;;;3.37;;
70455;SDS011;57916;51.996;5.180;2023-05-20T06:21:30;8.47;;;3.33;;
70455;SDS011;57916;51.996;5.180;2023-05-20T06:23:58;6.70;;;3.53;;
70455;SDS011;57916;51.996;5.180;2023-05-20T06:26:25;4.43;;;3.53;;
70455;SDS011;57916;51.996;5.180;2023-05-20T06:28:52;7.40;;;3.30;;
70455;SDS011;57916;51.996;5.180;2023-05-20T06:31:20;7.85;;;3.28;;
70455;SDS011;57916;51.996;5.180;2023-05-20T06:33:47;8.52;;;3.47;;
70455;SDS011;57916;51.996;5.180;2023-05-20T06:36:15;6.68;;;3.15;;
70455;SDS011;57916;51.996;5.180;2023-05-20T06:38:43;6.20;;;3.33;;
70455;SDS011;57916;51.996;5.180;2023-05-20T06:41:12;4.97;;;3.05;;
70455;SDS011;57916;51.996;5.180;2023-05-20T06:43:39;6.78;;;3.15;;
70455;SDS011;57916;51.996;5.180;2023-05-20T06:46:32;5.18;;;2.97;;
70455;SDS011;57916;51.996;5.180;2023-05-20T06:49:03;6.67;;;2.93;;
70455;SDS011;57916;51.996;5.180;2023-05-20T06:51:30;4.50;;;3.30;;
70455;SDS011;57916;51.996;5.180;2023-05-20T06:53:58;4.78;;;3.10;;
70455;SDS011;57916;51.996;5.180;2023-05-20T06:56:25;5.30;;;3.15;;
70455;SDS011;57916;51.996;5.180;2023-05-20T06:58:53;5.40;;;2.80;;
70455;SDS011;57916;51.996;5.180;2023-05-20T07:01:20;11.90;;;2.80;;
70455;SDS011;57916;51.996;5.180;2023-05-20T07:03:48;3.47;;;2.70;;
70455;SDS011;57916;51.996;5.180;2023-05-20T07:06:15;4.50;;;2.72;;
70455;SDS011;57916;51.996;5.180;2023-05-20T07:08:42;7.40;;;2.83;;
70455;SDS011;57916;51.996;5.180;2023-05-20T07:11:10;4.45;;;2.90;;
70455;SDS011;57916;51.996;5.180;2023-05-20T07:13:37;4.10;;;2.75;;
70455;SDS011;57916;51.996;5.180;2023-05-20T07:16:04;5.25;;;3.00;;
70455;SDS011;57916;51.996;5.180;2023-05-20T07:18:34;3.33;;;2.55;;
70455;SDS011;57916;51.996;5.180;2023-05-20T07:21:02;6.87;;;2.57;;
70455;SDS011;57916;51.996;5.180;2023-05-20T07:23:53;4.22;;;2.40;;
70455;SDS011;57916;51.996;5.180;2023-05-20T07:26:20;4.40;;;2.53;;
70455;SDS011;57916;51.996;5.180;2023-05-20T07:28:47;4.30;;;2.40;;
70455;SDS011;57916;51.996;5.180;2023-05-20T07:31:14;3.80;;;2.33;;
70455;SDS011;57916;51.996;5.180;2023-05-20T07:33:43;3.95;;;2.38;;
70455;SDS011;57916;51.996;5.180;2023-05-20T07:36:10;3.23;;;2.20;;
70455;SDS011;57916;51.996;5.180;2023-05-20T07:38:39;3.75;;;2.22;;
70455;SDS011;57916;51.996;5.180;2023-05-20T07:41:22;3.13;;;2.10;;
70455;SDS011;57916;51.996;5.180;2023-05-20T07:43:49;4.25;;;2.08;;
70455;SDS011;57916;51.996;5.180;2023-05-20T07:46:17;3.77;;;1.80;;
70455;SDS011;57916;51.996;5.180;2023-05-20T07:48:45;3.10;;;2.03;;
70455;SDS011;57916;51.996;5.180;2023-05-20T07:51:13;2.53;;;1.80;;
70455;SDS011;57916;51.996;5.180;2023-05-20T07:53:40;3.55;;;1.83;;
70455;SDS011;57916;51.996;5.180;2023-05-20T07:56:07;2.70;;;1.73;;
70455;SDS011;57916;51.996;5.180;2023-05-20T07:58:36;4.32;;;1.90;;
70455;SDS011;57916;51.996;5.180;2023-05-20T08:01:03;6.30;;;2.20;;
70455;SDS011;57916;51.996;5.180;2023-05-20T08:03:30;2.28;;;1.90;;
70455;SDS011;57916;51.996;5.180;2023-05-20T08:06:05;4.83;;;2.20;;
70455;SDS011;57916;51.996;5.180;2023-05-20T08:08:32;2.67;;;1.77;;
70455;SDS011;57916;51.996;5.180;2023-05-20T08:11:06;2.53;;;1.90;;
70455;SDS011;57916;51.996;5.180;2023-05-20T08:13:33;3.90;;;1.70;;
70455;SDS011;57916;51.996;5.180;2023-05-20T08:16:01;3.33;;;1.85;;
70455;SDS011;57916;51.996;5.180;2023-05-20T08:18:34;4.93;;;2.10;;
70455;SDS011;57916;51.996;5.180;2023-05-20T08:21:06;3.70;;;1.60;;
70455;SDS011;57916;51.996;5.180;2023-05-20T08:23:33;2.15;;;1.60;;
70455;SDS011;57916;51.996;5.180;2023-05-20T08:26:05;3.30;;;1.58;;
70455;SDS011;57916;51.996;5.180;2023-05-20T08:28:35;3.03;;;1.83;;
70455;SDS011;57916;51.996;5.180;2023-05-20T08:31:05;1.98;;;1.67;;
70455;SDS011;57916;51.996;5.180;2023-05-20T08:33:33;1.85;;;1.50;;
70455;SDS011;57916;51.996;5.180;2023-05-20T08:36:00;3.73;;;1.67;;
70455;SDS011;57916;51.996;5.180;2023-05-20T08:38:28;2.70;;;1.42;;
70455;SDS011;57916;51.996;5.180;2023-05-20T08:40:55;2.60;;;1.60;;
70455;SDS011;57916;51.996;5.180;2023-05-20T08:43:23;3.63;;;1.60;;
70455;SDS011;57916;51.996;5.180;2023-05-20T08:45:51;2.10;;;1.50;;
70455;SDS011;57916;51.996;5.180;2023-05-20T08:48:21;5.30;;;1.40;;
70455;SDS011;57916;51.996;5.180;2023-05-20T08:50:51;3.22;;;1.60;;
70455;SDS011;57916;51.996;5.180;2023-05-20T08:53:19;2.95;;;1.38;;
70455;SDS011;57916;51.996;5.180;2023-05-20T08:55:54;3.05;;;1.40;;
70455;SDS011;57916;51.996;5.180;2023-05-20T08:58:27;3.83;;;1.30;;
70455;SDS011;57916;51.996;5.180;2023-05-20T09:00:54;3.13;;;1.30;;
70455;SDS011;57916;51.996;5.180;2023-05-20T09:03:21;2.90;;;1.30;;
70455;SDS011;57916;51.996;5.180;2023-05-20T09:05:52;1.10;;;1.07;;
70455;SDS011;57916;51.996;5.180;2023-05-20T09:08:23;5.55;;;1.30;;
70455;SDS011;57916;51.996;5.180;2023-05-20T09:10:52;3.95;;;1.00;;
70455;SDS011;57916;51.996;5.180;2023-05-20T09:13:19;2.38;;;1.20;;
70455;SDS011;57916;51.996;5.180;2023-05-20T09:15:49;2.75;;;1.50;;
70455;SDS011;57916;51.996;5.180;2023-05-20T09:18:16;1.60;;;0.98;;
70455;SDS011;57916;51.996;5.180;2023-05-20T09:20:45;2.85;;;1.35;;
70455;SDS011;57916;51.996;5.180;2023-05-20T09:23:17;3.05;;;1.33;;
70455;SDS011;57916;51.996;5.180;2023-05-20T09:25:50;2.27;;;1.40;;
70455;SDS011;57916;51.996;5.180;2023-05-20T09:28:18;4.90;;;1.30;;
70455;SDS011;57916;51.996;5.180;2023-05-20T09:30:47;4.57;;;1.50;;
70455;SDS011;57916;51.996;5.180;2023-05-20T09:33:15;2.83;;;1.25;;
70455;SDS011;57916;51.996;5.180;2023-05-20T09:35:43;8.38;;;1.40;;
70455;SDS011;57916;51.996;5.180;2023-05-20T09:38:10;5.30;;;1.40;;
70455;SDS011;57916;51.996;5.180;2023-05-20T09:40:39;4.07;;;1.40;;
70455;SDS011;57916;51.996;5.180;2023-05-20T09:43:08;3.83;;;1.40;;
70455;SDS011;57916;51.996;5.180;2023-05-20T09:45:37;3.90;;;1.40;;
70455;SDS011;57916;51.996;5.180;2023-05-20T09:48:04;4.40;;;1.55;;
70455;SDS011;57916;51.996;5.180;2023-05-20T09:50:32;1.63;;;1.42;;
70455;SDS011;57916;51.996;5.180;2023-05-20T09:53:03;7.43;;;1.60;;
70455;SDS011;57916;51.996;5.180;2023-05-20T09:55:31;2.22;;;1.52;;
70455;SDS011;57916;51.996;5.180;2023-05-20T09:58:00;5.65;;;1.80;;
70455;SDS011;57916;51.996;5.180;2023-05-20T10:00:28;6.85;;;1.50;;
70455;SDS011;57916;51.996;5.180;2023-05-20T10:02:56;7.03;;;1.60;;
70455;SDS011;57916;51.996;5.180;2023-05-20T10:05:24;5.30;;;1.50;;
70455;SDS011;57916;51.996;5.180;2023-05-20T10:08:21;5.30;;;1.65;;
70455;SDS011;57916;51.996;5.180;2023-05-20T10:11:18;2.47;;;1.40;;
70455;SDS011;57916;51.996;5.180;2023-05-20T10:17:16;3.63;;;1.70;;
70455;SDS011;57916;51.996;5.180;2023-05-20T10:19:49;3.00;;;1.60;;
70455;SDS011;57916;51.996;5.180;2023-05-20T10:22:27;2.35;;;1.55;;
70455;SDS011;57916;51.996;5.180;2023-05-20T10:24:59;6.93;;;1.65;;
70455;SDS011;57916;51.996;5.180;2023-05-20T10:27:42;7.00;;;1.58;;
70455;SDS011;57916;51.996;5.180;2023-05-20T10:30:16;4.15;;;1.70;;
70455;SDS011;57916;51.996;5.180;2023-05-20T10:32:50;6.78;;;1.55;;
70455;SDS011;57916;51.996;5.180;2023-05-20T10:35:23;1.83;;;1.40;;
70455;SDS011;57916;51.996;5.180;2023-05-20T10:37:54;4.35;;;1.52;;
70455;SDS011;57916;51.996;5.180;2023-05-20T10:40:38;1.90;;;1.80;;
70455;SDS011;57916;51.996;5.180;2023-05-20T10:43:09;2.10;;;1.67;;
70455;SDS011;57916;51.996;5.180;2023-05-20T10:45:53;4.20;;;1.70;;
70455;SDS011;57916;51.996;5.180;2023-05-20T10:48:26;4.80;;;1.65;;
70455;SDS011;57916;51.996;5.180;2023-05-20T10:50:55;2.95;;;1.25;;
70455;SDS011;57916;51.996;5.180;2023-05-20T10:53:27;2.50;;;1.70;;
70455;SDS011;57916;51.996;5.180;2023-05-20T10:56:03;3.80;;;1.67;;
70455;SDS011;57916;51.996;5.180;2023-05-20T10:58:37;5.45;;;2.05;;
70455;SDS011;57916;51.996;5.180;2023-05-20T11:01:05;1.73;;;1.52;;
70455;SDS011;57916;51.996;5.180;2023-05-20T11:03:32;3.20;;;1.50;;
70455;SDS011;57916;51.996;5.180;2023-05-20T11:06:00;4.40;;;1.58;;
70455;SDS011;57916;51.996;5.180;2023-05-20T11:08:35;2.65;;;1.60;;
70455;SDS011;57916;51.996;5.180;2023-05-20T11:11:02;7.68;;;1.73;;
70455;SDS011;57916;51.996;5.180;2023-05-20T11:13:29;2.97;;;1.42;;
70455;SDS011;57916;51.996;5.180;2023-05-20T11:15:56;3.65;;;1.67;;
70455;SDS011;57916;51.996;5.180;2023-05-20T11:18:27;1.60;;;1.40;;
70455;SDS011;57916;51.996;5.180;2023-05-20T11:20:57;5.05;;;1.60;;
70455;SDS011;57916;51.996;5.180;2023-05-20T11:23:25;4.18;;;1.75;;
70455;SDS011;57916;51.996;5.180;2023-05-20T11:25:53;5.10;;;1.50;;
70455;SDS011;57916;51.996;5.180;2023-05-20T11:28:22;3.72;;;1.38;;
70455;SDS011;57916;51.996;5.180;2023-05-20T11:30:50;3.45;;;1.60;;
70455;SDS011;57916;51.996;5.180;2023-05-20T11:33:18;4.25;;;1.50;;
70455;SDS011;57916;51.996;5.180;2023-05-20T11:35:46;9.02;;;1.60;;
70455;SDS011;57916;51.996;5.180;2023-05-20T11:38:15;2.42;;;1.30;;
70455;SDS011;57916;51.996;5.180;2023-05-20T11:40:43;3.63;;;1.60;;
70455;SDS011;57916;51.996;5.180;2023-05-20T11:43:16;2.63;;;1.60;;
70455;SDS011;57916;51.996;5.180;2023-05-20T11:45:43;5.25;;;2.10;;
70455;SDS011;57916;51.996;5.180;2023-05-20T11:48:11;2.65;;;1.42;;
70455;SDS011;57916;51.996;5.180;2023-05-20T11:50:42;2.53;;;1.65;;
70455;SDS011;57916;51.996;5.180;2023-05-20T11:53:13;2.42;;;1.60;;
70455;SDS011;57916;51.996;5.180;2023-05-20T11:55:58;7.30;;;2.27;;
70455;SDS011;57916;51.996;5.180;2023-05-20T11:58:26;5.25;;;1.98;;
70455;SDS011;57916;51.996;5.180;2023-05-20T12:00:57;9.50;;;2.00;;
70455;SDS011;57916;51.996;5.180;2023-05-20T12:03:44;3.60;;;1.65;;
70455;SDS011;57916;51.996;5.180;2023-05-20T12:06:11;3.13;;;1.65;;
70455;SDS011;57916;51.996;5.180;2023-05-20T12:08:38;5.43;;;2.03;;
70455;SDS011;57916;51.996;5.180;2023-05-20T12:11:06;3.75;;;1.50;;
70455;SDS011;57916;51.996;5.180;2023-05-20T12:13:33;1.70;;;1.50;;
70455;SDS011;57916;51.996;5.180;2023-05-20T12:16:01;6.40;;;2.13;;
70455;SDS011;57916;51.996;5.180;2023-05-20T12:18:29;3.87;;;1.70;;
70455;SDS011;57916;51.996;5.180;2023-05-20T12:20:57;6.82;;;2.20;;
70455;SDS011;57916;51.996;5.180;2023-05-20T12:23:24;3.45;;;1.60;;
70455;SDS011;57916;51.996;5.180;2023-05-20T12:25:51;2.83;;;1.50;;
70455;SDS011;57916;51.996;5.180;2023-05-20T12:28:18;2.00;;;1.30;;
70455;SDS011;57916;51.996;5.180;2023-05-20T12:30:45;5.50;;;1.60;;
70455;SDS011;57916;51.996;5.180;2023-05-20T12:33:12;4.07;;;1.90;;
70455;SDS011;57916;51.996;5.180;2023-05-20T12:35:40;3.38;;;1.60;;
70455;SDS011;57916;51.996;5.180;2023-05-20T12:38:08;2.88;;;1.50;;
70455;SDS011;57916;51.996;5.180;2023-05-20T12:40:35;3.37;;;1.60;;
70455;SDS011;57916;51.996;5.180;2023-05-20T12:43:04;3.60;;;1.70;;
70455;SDS011;57916;51.996;5.180;2023-05-20T12:45:31;2.13;;;1.80;;
70455;SDS011;57916;51.996;5.180;2023-05-20T12:47:58;3.30;;;1.58;;
70455;SDS011;57916;51.996;5.180;2023-05-20T12:50:25;3.27;;;1.43;;
70455;SDS011;57916;51.996;5.180;2023-05-20T12:52:53;6.33;;;1.47;;
70455;SDS011;57916;51.996;5.180;2023-05-20T12:55:20;12.02;;;1.60;;
70455;SDS011;57916;51.996;5.180;2023-05-20T12:57:47;5.47;;;1.80;;
70455;SDS011;57916;51.996;5.180;2023-05-20T13:00:15;2.90;;;1.63;;
70455;SDS011;57916;51.996;5.180;2023-05-20T13:02:42;10.10;;;1.60;;
70455;SDS011;57916;51.996;5.180;2023-05-20T13:05:09;4.03;;;1.58;;
70455;SDS011;57916;51.996;5.180;2023-05-20T13:07:37;4.47;;;1.60;;
70455;SDS011;57916;51.996;5.180;2023-05-20T13:10:04;8.27;;;1.80;;
70455;SDS011;57916;51.996;5.180;2023-05-20T13:12:33;1.80;;;1.50;;
70455;SDS011;57916;51.996;5.180;2023-05-20T13:15:00;2.80;;;1.48;;
70455;SDS011;57916;51.996;5.180;2023-05-20T13:17:28;5.50;;;1.40;;
70455;SDS011;57916;51.996;5.180;2023-05-20T13:19:55;2.35;;;1.50;;
70455;SDS011;57916;51.996;5.180;2023-05-20T13:22:22;4.50;;;1.60;;
70455;SDS011;57916;51.996;5.180;2023-05-20T13:24:49;3.63;;;1.80;;
70455;SDS011;57916;51.996;5.180;2023-05-20T13:27:16;4.35;;;1.60;;
70455;SDS011;57916;51.996;5.180;2023-05-20T13:29:43;4.33;;;1.57;;
70455;SDS011;57916;51.996;5.180;2023-05-20T13:32:10;4.80;;;1.55;;
70455;SDS011;57916;51.996;5.180;2023-05-20T13:34:37;3.10;;;1.40;;
70455;SDS011;57916;51.996;5.180;2023-05-20T13:37:05;4.90;;;1.45;;
70455;SDS011;57916;51.996;5.180;2023-05-20T13:39:32;3.10;;;1.40;;
70455;SDS011;57916;51.996;5.180;2023-05-20T13:41:59;2.58;;;1.40;;
70455;SDS011;57916;51.996;5.180;2023-05-20T13:44:26;2.97;;;1.52;;
70455;SDS011;57916;51.996;5.180;2023-05-20T13:46:54;2.87;;;1.47;;
70455;SDS011;57916;51.996;5.180;2023-05-20T13:49:21;3.42;;;1.70;;
70455;SDS011;57916;51.996;5.180;2023-05-20T13:51:50;1.88;;;1.50;;
70455;SDS011;57916;51.996;5.180;2023-05-20T13:54:17;3.90;;;1.60;;
70455;SDS011;57916;51.996;5.180;2023-05-20T13:56:46;3.40;;;1.60;;
70455;SDS011;57916;51.996;5.180;2023-05-20T13:59:12;2.35;;;1.52;;
70455;SDS011;57916;51.996;5.180;2023-05-20T14:01:39;4.55;;;1.55;;
70455;SDS011;57916;51.996;5.180;2023-05-20T14:04:10;4.27;;;1.50;;
70455;SDS011;57916;51.996;5.180;2023-05-20T14:06:38;3.20;;;1.50;;
70455;SDS011;57916;51.996;5.180;2023-05-20T14:09:05;2.95;;;1.40;;
70455;SDS011;57916;51.996;5.180;2023-05-20T14:11:34;3.23;;;1.50;;
70455;SDS011;57916;51.996;5.180;2023-05-20T14:14:01;4.23;;;1.30;;
70455;SDS011;57916;51.996;5.180;2023-05-20T14:16:28;6.07;;;1.65;;
70455;SDS011;57916;51.996;5.180;2023-05-20T14:18:56;5.68;;;1.50;;
70455;SDS011;57916;51.996;5.180;2023-05-20T14:21:23;3.38;;;1.73;;
70455;SDS011;57916;51.996;5.180;2023-05-20T14:23:50;1.95;;;1.60;;
70455;SDS011;57916;51.996;5.180;2023-05-20T14:26:17;5.37;;;1.50;;
70455;SDS011;57916;51.996;5.180;2023-05-20T14:28:44;5.00;;;1.45;;
70455;SDS011;57916;51.996;5.180;2023-05-20T14:31:11;2.60;;;1.98;;
70455;SDS011;57916;51.996;5.180;2023-05-20T14:33:38;4.07;;;1.45;;
70455;SDS011;57916;51.996;5.180;2023-05-20T14:36:05;4.37;;;1.40;;
70455;SDS011;57916;51.996;5.180;2023-05-20T14:38:33;3.40;;;1.47;;
70455;SDS011;57916;51.996;5.180;2023-05-20T14:41:00;2.40;;;1.60;;
70455;SDS011;57916;51.996;5.180;2023-05-20T14:43:27;7.18;;;1.30;;
70455;SDS011;57916;51.996;5.180;2023-05-20T14:45:53;4.43;;;1.30;;
70455;SDS011;57916;51.996;5.180;2023-05-20T14:48:20;6.47;;;1.55;;
70455;SDS011;57916;51.996;5.180;2023-05-20T14:50:47;5.07;;;1.60;;
70455;SDS011;57916;51.996;5.180;2023-05-20T14:53:15;3.60;;;1.30;;
70455;SDS011;57916;51.996;5.180;2023-05-20T14:55:42;7.40;;;1.48;;
70455;SDS011;57916;51.996;5.180;2023-05-20T14:58:09;4.55;;;1.52;;